Bodinumu Airport

BNM · Northern Province, 巴布亚新几内亚

罗盘
风向 的 风向 340°
风: 16 kt, 4 beaufort

添加一条跑道以查看侧风和逆风信息。

添置 跑道
0 1.000 2.000 3.000 4.000 5.000
SCT 3.000 ft
BKN 5.000 ft
METAR AYPY 290100Z 34016KT 9999 SCT030 BKN050 29/24 Q1009

METAR Bodinumu Airport - BNM/BNM

Bodinumu Airport是,巴布亚新几内亚中的小机场。 视场标高为3.700 ft。 该领域的国际民航组织标志是BNM 它的国际航空运输协会代码是BNM.

这份报告是针对2022年11月29日 11:00, 当地时间在傑克遜斯國際機場进行的。

机场观察

风向为340°,速度为16 kt。

可见度为10 km 或者更多。

有疏云,零星散落的云朵在3.000 ft的高度 和 碎云在5.000 ft的高度。 破损或更高的上限为5.000 ft。

温度和风寒是29 °C。 热指数为33。 露点为24 °C,相对湿度为74%。 海平面上的气压为1009 hPa (QNH)。

白天

今天,太阳从05:39升起,在18:15降落。 这适用于Bodinumu Airport,世界夏令时可能有所不同。 当地时间与世界标准时间之间的时差为+10 小时。 当前,没有夏令时有效。

公司介绍

我们没有关于这个机场的公司信息。

体会

到Vliegles.nl去找飞行课程,跳伞和其他飞行体验。 浏览页面,了解Bodinumu Airport附近所有可用的活动。 你也可以使用搜索功能来寻找你所在地附近的特定飞行课程、跳伞或其他飞行体验。

乌云

3.000 ft SCT 疏云,零星散落的云朵
5.000 ft BKN 碎云

温度 & 天气

温度 29 °C
露点 24 °C
相对湿度 74%
热度指数 33 °C
Kp-index 4 (0-9)

白天

日出
05:40
中午
11:59
日落
18:17 (6:31)

小工具

你想在你的网站上有一个关于Bodinumu Airport的当前航空天气(METAR)的小部件吗?

显示HTML代码

我们和第三方通过cookies跟踪您在我们网站上的互联网行为。如果你继续,我们认为你同意我们的饼干政策